createdAt,value
2023-04-09T00:02:16.608Z,21.00
2023-04-09T00:07:18.505Z,20.10
2023-04-09T00:12:20.332Z,19.00
2023-04-09T00:17:22.153Z,18.52
2023-04-09T00:22:23.945Z,17.80
2023-04-09T00:27:25.884Z,18.17
2023-04-09T00:32:27.704Z,17.95
2023-04-09T00:37:29.477Z,18.33
2023-04-09T00:42:34.906Z,18.45
2023-04-09T00:47:36.918Z,18.08
2023-04-09T00:52:38.834Z,17.95
2023-04-09T00:57:40.795Z,17.30
2023-04-09T01:02:43.350Z,17.83
2023-04-09T01:08:03.920Z,18.27
2023-04-09T01:13:27.331Z,19.42
2023-04-09T01:18:36.106Z,16.30
2023-04-09T01:23:58.492Z,17.30
2023-04-09T01:29:00.996Z,17.30
2023-04-09T01:34:03.598Z,17.63
2023-04-09T01:39:07.494Z,16.90
2023-04-09T01:44:10.491Z,17.02
2023-04-09T01:49:13.060Z,16.50
2023-04-09T01:54:16.838Z,16.38
2023-04-09T01:59:18.618Z,17.92
2023-04-09T02:04:41.418Z,16.70
2023-04-09T02:09:46.360Z,18.15
2023-04-09T02:14:51.232Z,18.25
2023-04-09T02:19:52.985Z,19.50
2023-04-09T02:24:54.739Z,20.05
2023-04-09T02:29:56.478Z,20.25
2023-04-09T02:34:58.212Z,21.38
2023-04-09T02:39:59.980Z,20.20
2023-04-09T02:45:01.792Z,21.15
2023-04-09T02:50:04.153Z,20.85
2023-04-09T02:55:06.479Z,21.02
2023-04-09T03:00:09.048Z,23.73
2023-04-09T03:05:10.826Z,22.90
2023-04-09T03:10:12.844Z,22.23
2023-04-09T03:15:14.652Z,21.92
2023-04-09T03:20:16.505Z,21.77
2023-04-09T03:25:20.860Z,21.05
2023-04-09T03:30:22.667Z,21.25
2023-04-09T03:35:24.625Z,23.20
2023-04-09T03:40:26.420Z,24.77
2023-04-09T03:45:30.064Z,22.67
2023-04-09T03:50:31.828Z,24.70
2023-04-09T03:55:33.811Z,26.70
2023-04-09T04:00:35.604Z,27.65
2023-04-09T04:05:37.351Z,28.80
2023-04-09T04:10:39.078Z,27.20
2023-04-09T04:15:44.366Z,27.52
2023-04-09T04:20:46.097Z,26.85
2023-04-09T04:25:49.170Z,27.45
2023-04-09T04:30:51.046Z,26.75
2023-04-09T04:35:52.815Z,28.63
2023-04-09T04:40:54.564Z,26.45
2023-04-09T04:45:56.495Z,27.83
2023-04-09T04:51:00.631Z,25.65
2023-04-09T04:56:02.375Z,24.73
2023-04-09T05:01:04.182Z,25.77
2023-04-09T05:06:06.054Z,26.15
2023-04-09T05:11:11.140Z,27.00
2023-04-09T05:16:17.850Z,26.30
2023-04-09T05:21:19.631Z,27.70
2023-04-09T05:26:22.690Z,27.15
2023-04-09T05:31:24.582Z,30.33
2023-04-09T05:36:27.220Z,28.92
2023-04-09T05:41:29.058Z,28.00
2023-04-09T05:46:31.409Z,28.23
2023-04-09T05:51:33.288Z,27.20
2023-04-09T05:56:35.256Z,27.88
2023-04-09T06:01:37.070Z,27.80
2023-04-09T06:06:39.452Z,33.25
2023-04-09T06:11:41.224Z,28.40
2023-04-09T06:16:43.046Z,30.27
2023-04-09T06:21:44.874Z,33.47
2023-04-09T06:26:46.616Z,32.10
2023-04-09T06:31:48.575Z,32.92
2023-04-09T06:36:50.425Z,32.88
2023-04-09T06:41:52.694Z,32.75
2023-04-09T06:46:54.468Z,31.90
2023-04-09T06:51:56.351Z,30.02
2023-04-09T06:56:58.155Z,30.40
2023-04-09T07:02:00.954Z,29.65
2023-04-09T07:07:02.900Z,30.95
2023-04-09T07:12:04.859Z,28.92
2023-04-09T07:17:06.632Z,29.02
2023-04-09T07:22:08.397Z,30.33
2023-04-09T07:27:10.426Z,29.65
2023-04-09T07:32:12.421Z,30.38
2023-04-09T07:37:14.208Z,29.15
2023-04-09T07:42:16.258Z,28.60
2023-04-09T07:47:18.142Z,29.00
2023-04-09T07:52:20.336Z,27.48
2023-04-09T07:57:22.168Z,28.13
2023-04-09T08:02:24.200Z,27.98
2023-04-09T08:07:26.266Z,26.50
2023-04-09T08:12:28.024Z,27.48
2023-04-09T08:17:30.071Z,25.67
2023-04-09T08:22:32.473Z,25.83
2023-04-09T08:27:34.800Z,26.00
2023-04-09T08:32:37.445Z,24.48
2023-04-09T08:37:39.812Z,24.20
2023-04-09T08:42:47.829Z,21.80
2023-04-09T08:47:50.997Z,21.58
2023-04-09T08:52:54.126Z,21.52
2023-04-09T08:57:56.407Z,22.30
2023-04-09T09:03:02.236Z,20.83
2023-04-09T09:08:04.353Z,21.85
2023-04-09T09:13:25.793Z,22.40
2023-04-09T09:18:42.152Z,21.95
2023-04-09T09:23:44.617Z,20.90
2023-04-09T09:28:48.152Z,20.45
2023-04-09T09:33:51.111Z,19.98
2023-04-09T09:38:54.993Z,20.58
2023-04-09T09:43:57.217Z,19.42
2023-04-09T09:48:58.990Z,19.35
2023-04-09T09:54:01.629Z,20.25
2023-04-09T09:59:18.486Z,19.83
2023-04-09T10:04:21.346Z,19.73
2023-04-09T10:09:26.499Z,20.35
2023-04-09T10:14:29.426Z,20.05
2023-04-09T10:19:40.893Z,18.23
2023-04-09T10:24:42.905Z,19.30
2023-04-09T10:29:47.541Z,19.50
2023-04-09T10:34:50.695Z,19.88
2023-04-09T10:39:53.237Z,19.85
2023-04-09T10:45:08.174Z,19.67
2023-04-09T10:50:20.391Z,18.38
2023-04-09T10:55:38.614Z,18.27
2023-04-09T11:00:43.071Z,18.25
2023-04-09T11:05:47.145Z,16.88
2023-04-09T11:10:51.748Z,16.63
2023-04-09T11:15:56.159Z,16.85
2023-04-09T11:21:03.458Z,15.27
2023-04-09T11:26:05.456Z,15.90
2023-04-09T11:31:07.455Z,15.85
2023-04-09T11:36:12.795Z,16.20
2023-04-09T11:41:14.627Z,15.02
2023-04-09T11:46:16.661Z,14.80
2023-04-09T11:51:19.308Z,14.15
2023-04-09T11:56:21.205Z,13.18
2023-04-09T12:01:23.385Z,12.95
2023-04-09T12:06:27.957Z,12.50
2023-04-09T12:11:31.628Z,11.93
2023-04-09T12:16:35.290Z,11.43
2023-04-09T12:21:47.061Z,11.35
2023-04-09T12:26:49.252Z,11.65
2023-04-09T12:31:51.109Z,9.82
2023-04-09T12:36:53.265Z,9.50
2023-04-09T12:41:55.052Z,9.85
2023-04-09T12:46:56.783Z,9.23
2023-04-09T12:51:58.620Z,9.02
2023-04-09T12:57:00.406Z,9.15
2023-04-09T13:02:02.558Z,9.13
2023-04-09T13:07:04.470Z,7.95
2023-04-09T13:12:06.944Z,8.13
2023-04-09T13:17:08.837Z,7.45
2023-04-09T13:22:10.893Z,7.50
2023-04-09T13:27:12.809Z,7.15
2023-04-09T13:32:14.699Z,6.13
2023-04-09T13:37:16.927Z,6.22
2023-04-09T13:42:19.145Z,6.47
2023-04-09T13:47:21.872Z,5.72
2023-04-09T13:52:26.776Z,6.00
2023-04-09T13:57:31.278Z,5.55
2023-04-09T14:02:33.482Z,5.60
2023-04-09T14:07:35.413Z,5.80
2023-04-09T14:12:37.335Z,4.50
2023-04-09T14:17:39.952Z,4.80
2023-04-09T14:22:43.016Z,5.07
2023-04-09T14:27:44.947Z,5.18
2023-04-09T14:32:46.919Z,4.68
2023-04-09T14:37:48.707Z,4.90
2023-04-09T14:42:50.661Z,8.25
2023-04-09T14:47:52.552Z,4.22
2023-04-09T14:52:54.346Z,8.98
2023-04-09T14:57:56.683Z,5.35
2023-04-09T15:02:58.826Z,4.07
2023-04-09T15:08:00.827Z,4.53
2023-04-09T15:13:02.601Z,4.25
2023-04-09T15:18:06.480Z,4.78
2023-04-09T15:23:08.400Z,4.07
2023-04-09T15:28:10.474Z,4.03
2023-04-09T15:33:13.378Z,4.38
2023-04-09T15:38:15.570Z,4.10
2023-04-09T15:43:17.449Z,4.50
2023-04-09T15:48:19.549Z,4.15
2023-04-09T15:53:23.847Z,4.68
2023-04-09T15:58:26.184Z,5.28
2023-04-09T16:03:27.961Z,4.00
2023-04-09T16:08:29.839Z,4.00
2023-04-09T16:13:31.754Z,5.10
2023-04-09T16:18:33.779Z,4.43
2023-04-09T16:23:35.545Z,3.88
2023-04-09T16:28:37.481Z,4.43
2023-04-09T16:33:39.231Z,3.63
2023-04-09T16:38:41.543Z,4.10
2023-04-09T16:43:43.317Z,4.20
2023-04-09T16:48:45.299Z,3.88
2023-04-09T16:53:47.264Z,4.07
2023-04-09T16:58:49.252Z,4.22
2023-04-09T17:03:51.228Z,3.80
2023-04-09T17:08:53.476Z,4.20
2023-04-09T17:13:55.719Z,3.42
2023-04-09T17:18:57.610Z,3.50
2023-04-09T17:24:01.836Z,4.20
2023-04-09T17:29:03.770Z,4.03
2023-04-09T17:34:05.532Z,3.67
2023-04-09T17:39:07.485Z,3.40
2023-04-09T17:44:09.305Z,3.80
2023-04-09T17:49:11.343Z,3.70
2023-04-09T17:54:13.355Z,5.65
2023-04-09T17:59:15.134Z,5.95
2023-04-09T18:04:17.418Z,4.30
2023-04-09T18:09:19.530Z,3.75
2023-04-09T18:14:21.924Z,3.75
2023-04-09T18:19:24.197Z,4.40
2023-04-09T18:24:26.801Z,6.60
2023-04-09T18:29:29.975Z,14.55
2023-04-09T18:34:32.036Z,12.88
2023-04-09T18:39:37.598Z,11.60
2023-04-09T18:44:40.395Z,8.68
2023-04-09T18:49:42.116Z,7.85
2023-04-09T18:54:43.935Z,6.13
2023-04-09T18:59:46.900Z,5.55
2023-04-09T19:04:48.933Z,5.53
2023-04-09T19:09:50.751Z,5.05
2023-04-09T19:14:53.738Z,6.03
2023-04-09T19:19:55.823Z,5.25
2023-04-09T19:24:57.598Z,6.00
2023-04-09T19:30:01.113Z,5.55
2023-04-09T19:35:03.380Z,5.63
2023-04-09T19:40:05.893Z,5.60
2023-04-09T19:45:08.594Z,7.00
2023-04-09T19:50:10.936Z,6.70
2023-04-09T19:55:12.771Z,8.05
2023-04-09T20:00:14.812Z,7.57
2023-04-09T20:05:21.021Z,8.63
2023-04-09T20:10:22.831Z,7.30
2023-04-09T20:15:24.877Z,6.97
2023-04-09T20:20:27.219Z,7.63
2023-04-09T20:25:34.369Z,6.85
2023-04-09T20:30:37.001Z,7.82
2023-04-09T20:35:38.835Z,7.13
2023-04-09T20:40:40.631Z,7.22
2023-04-09T20:45:42.437Z,6.93
2023-04-09T20:50:44.222Z,6.85
2023-04-09T20:55:46.507Z,7.45
2023-04-09T21:00:48.275Z,6.13
2023-04-09T21:05:50.077Z,6.35
2023-04-09T21:10:51.884Z,6.43
2023-04-09T21:15:53.927Z,6.47
2023-04-09T21:20:55.748Z,5.90
2023-04-09T21:25:57.600Z,6.70
2023-04-09T21:30:59.750Z,7.00
2023-04-09T21:36:03.512Z,6.78
2023-04-09T21:41:05.531Z,7.75
2023-04-09T21:46:07.632Z,6.38
2023-04-09T21:51:10.699Z,7.45
2023-04-09T21:56:12.451Z,8.30
2023-04-09T22:01:26.286Z,7.80
2023-04-09T22:06:31.103Z,7.32
2023-04-09T22:11:34.443Z,7.50
2023-04-09T22:16:36.470Z,7.85
2023-04-09T22:21:38.276Z,8.02
2023-04-09T22:26:42.676Z,7.78
2023-04-09T22:31:44.764Z,8.07
2023-04-09T22:36:46.744Z,8.20
2023-04-09T22:41:48.619Z,8.10
2023-04-09T22:46:50.862Z,8.15
2023-04-09T22:51:53.417Z,7.57
2023-04-09T22:56:56.754Z,7.20
2023-04-09T23:01:58.565Z,7.10
2023-04-09T23:07:00.745Z,8.10
2023-04-09T23:12:02.849Z,7.03
2023-04-09T23:17:04.611Z,7.50
2023-04-09T23:22:06.917Z,7.95
2023-04-09T23:27:08.774Z,7.03
2023-04-09T23:32:10.685Z,6.95
2023-04-09T23:37:12.499Z,7.82
2023-04-09T23:42:14.481Z,7.18
2023-04-09T23:47:16.461Z,7.57
2023-04-09T23:52:18.304Z,6.80
2023-04-09T23:57:20.398Z,6.13
